Airfield :
LOGIN :

Register | Disclaimer

   EN    FR    IT 

 










Legend :    VFR   Marginal VFR   IFR   Intensive IFR   Very Intensive IFR
Visi :
Ceiling :
>= 8 km
>= 3000ft
5 to 8 km
1000 to 3000 ft
1500m to 5 km
500 to 1000 ft
800 to 1500m
200 to 500 ft
< 800m
< 200 ft
Symbols :   Thunderstorms  Fog  Heavy snow  Heavy precipitations  Wind > 20 kt
SIGMETs :     Misc.  Thunderstorms  Icing  Turbulence  Mountain Waves  Volcanic Ashes






- Airport Elevation : 138 ft
- IATA code : BIO


LEBB - Bilbao

EXPIRED METARs :
  • 031530Z 03005KT 350V070 9999 OVC024 20/16 Q1021 NOSIG
  • 032330Z AUTO 00000KT 9999 BKN031 18/16 Q1023
  • 032300Z AUTO 00000KT 9999 BKN032 17/15 Q1023
  • 032230Z 27002KT 9999 BKN034 17/15 Q1023 NOSIG
  • 032200Z VRB01KT 9999 FEW038 BKN048 17/15 Q1023 NOSIG
  • 032130Z 35003KT 300V020 9999 FEW034 SCT048 17/15 Q1023 NOSIG
  • 032100Z VRB02KT 9999 FEW034 17/15 Q1023 NOSIG

TAF TAF LEBB
Valid from the 04 at 00:00 until the 05 at 00:00 UTC


032300Z 0400/0424 33008KT 9999 FEW020 BKN030 TX21/0415Z TN16/0405Z



MET'MAP, your aeronautical weather chart ! - Copyright ORBIFLY December 2007 - Disclaimer

ORBIFLY MET'MAP TEAM :

Programming & Development : Alexandra Zaïnal
Original concept : Baudouin d'Aumeries
Technical & hardware support : Manuel Goepfert
Assistance : Marc-Olivier Méhu




SOURCES & CREDITS :

   NOAA